Date,TemperatureHighF,TemperatureAvgF,TemperatureLowF,DewpointHighF,DewpointAvgF,DewpointLowF,HumidityHigh,HumidityAvg,HumidityLow,PressureMaxIn,PressureMinIn,WindSpeedMaxMPH,WindSpeedAvgMPH,GustSpeedMaxMPH,PrecipitationSumIn
2013-2-1,28.4,24.4,18.4,18.8,10.8,2.8,81,56,43,30.05,29.50,10,2,10,0.00
2013-2-2,26.3,20.5,12.3,13.2,6.3,1.3,73,54,37,30.19,30.01,7,0,7,0.00
2013-2-3,27.6,22.8,14.4,16.4,13.3,9.6,88,67,53,30.02,29.70,4,0,4,0.00
2013-2-4,26.9,21.4,17.7,15.7,7.4,-0.3,80,56,36,29.88,29.68,11,2,11,0.00
2013-2-5,26.6,18.0,6.5,11.8,4.8,0.2,79,57,37,30.02,29.87,4,0,4,0.00
2013-2-6,33.7,25.0,18.1,22.1,14.6,-2.6,88,66,40,30.29,29.90,7,1,7,0.01
2013-2-7,23.6,17.4,9.3,3.9,-0.9,-6.3,61,45,28,30.53,30.29,6,0,6,0.00
2013-2-8,20.6,17.7,14.8,14.1,10.2,0.0,88,74,40,30.48,29.81,10,1,10,0.00
2013-2-9,18.9,15.7,11.6,17.0,9.9,0.1,92,78,56,30.21,29.74,11,2,11,0.46
2013-2-10,32.2,16.7,4.3,13.2,3.8,-3.6,76,58,31,30.40,30.21,7,0,7,0.24
2013-2-11,26.6,18.5,7.0,25.6,15.1,1.3,96,86,73,30.34,29.62,1,0,1,0.00
2013-2-12,40.2,33.6,26.1,30.3,27.6,24.9,98,80,58,29.82,29.58,11,1,11,0.18
2013-2-13,38.8,30.4,23.0,27.9,22.2,18.3,84,72,49,29.84,29.72,4,0,4,0.08
2013-2-14,39.2,28.8,23.0,24.2,20.7,18.2,88,73,43,29.96,29.69,6,0,6,0.01
2013-2-15,47.0,30.0,17.0,27.9,22.1,13.7,92,75,44,29.96,29.85,8,0,8,0.00
2013-2-16,37.2,31.4,25.1,28.6,21.8,6.7,92,68,45,29.94,29.75,6,0,6,0.11
2013-2-17,25.1,18.5,12.9,11.5,5.1,0.3,76,56,43,29.75,29.42,14,3,14,0.00
2013-2-18,26.9,18.5,11.2,5.6,0.6,-3.8,63,46,27,30.10,29.66,14,2,14,0.00
2013-2-19,39.5,25.6,13.8,31.9,6.4,-99.9,96,57,35,30.14,29.55,6,-50,6,0.09
2013-2-20,32.8,26.0,23.6,32.0,6.5,-99.9,97,61,55,29.72,29.50,10,-98,10,0.00
2013-2-21,26.9,22.4,18.9,15.1,12.1,7.7,76,64,53,30.20,29.72,14,2,14,0.00
2013-2-22,37.9,27.0,13.3,24.4,17.5,9.6,91,69,43,30.40,30.20,6,0,6,0.00
2013-2-23,33.8,30.7,26.9,31.7,25.9,-99.9,96,85,70,30.31,29.94,2,-11,2,0.00
2013-2-24,33.7,32.0,30.9,32.9,31.1,29.7,98,96,94,29.94,29.74,1,0,1,0.00
2013-2-25,36.2,32.2,27.2,34.5,30.8,26.2,99,95,88,30.22,29.88,1,0,1,0.06
2013-2-26,39.2,33.7,30.3,33.1,30.4,28.4,99,88,68,30.33,30.17,7,0,7,0.09
2013-2-27,36.5,32.8,30.9,35.5,31.7,28.9,98,96,91,30.18,29.63,13,1,13,0.32
2013-2-28,40.5,25.3,30.9,37.0,-2.0,-99.9,100,71,83,29.63,29.52,1,-250,1,0.27